Hauptseite
METAR-TAF:

METAR-TAF

Flughäfen :

Flughafen Vannes

Vannes, Frankreich

Breite: 47-43-19N, Länge: 2-43-41W, Höhe: 130 m

Beobachtung

Neuester Wetterbericht von vor 33 Minuten, um 05:30 UTC
Wind 4 kt aus Ost/Nordost
Temperatur 2°C
Luftfeuchtigkeit 100%
Luftdruck 1008 hPa
Sichtweite: 0800 m
Aufgelockert bewölkt in der Höhe von 4200 ft
Durchbrochene Bewölkung in der Höhe von 5800 ft
Geschlossene Wolkendecke in der Höhe von 15000 ft
Nebel

METAR: LFRV 170530Z AUTO 07004KT 0800 FG SCT042 BKN058 OVC150 02/02 Q1008

Zeit: 07:03 (06:03 UTC)


TAF: fehlend

Wetterbeobachtungen und Prognosen von mehr als 4000 Flughäfen (METAR und TAF Bericht).

Die verfügbaren Stationen werden durch gelbe und rote Markierungen auf der Karte dargestellt.

Führen Sie die Maus auf sie, um den Namen der Station zu sehen.

Darauf klicken, um die Beobachtung von Wetterbeobachtungen und Prognosen zu sehen.

Um die Karte zu ändern : klicken Sie auf den grünen Tasten mit einem schwarzen Kreuz Zum Vergrößern, auf den grünen Button mit einem Gedankenstrich zu verkleinern, oder auf die grünen Pfeile für benachbarte Karten.


METAR-TAF: